aviador You're here:

EPZG Decoded Metar

ZIELONA GORA in POLAND
Report Time2018-07-19 20:30:00
UTC Time2018-07-19 21:06:09
Flight Rules vfr VFR
Wind280° at 04 kt
W.Decomp.*RWY 24: 3.2 kt HW 2.4 kt RCW
W.Rank280° ranks 17
Current wind is below 280° avg. (6.5)
Visibility9999 m
Phenomena:N/A
Clouds:N/A
Expected CloudBase > 1,200 ft AGL from Temp-Dew spread
CeilingNone
Temp19°C (ISA +4)
Dew Point16°C (83% RH)
QNH1015 hPa
Density Alt883 ft
Elevation194 ft
Report Wrong Elevation
Raw Report
METAR EPZG 192030Z 28004KT CAVOK 19/16 Q1015 =

Extra information for EPZG:More info

Metar Taf Metar & Taf Last 4 Metars F.Rules Stats Wind Profile Meteogram Temp Stats Airport Information Weather charts Add Link Nearby VenuesMetar ALERT Operation Metar Decoded Social comments